createdAt,value
2023-01-22T00:01:17.085Z,101309.03
2023-01-22T00:03:46.535Z,101305.44
2023-01-22T00:06:14.925Z,101294.63
2023-01-22T00:08:41.980Z,101280.44
2023-01-22T00:11:10.401Z,101296.72
2023-01-22T00:13:37.273Z,101295.41
2023-01-22T00:16:04.422Z,101302.63
2023-01-22T00:18:31.430Z,101293.00
2023-01-22T00:20:58.356Z,101298.19
2023-01-22T00:23:25.389Z,101323.50
2023-01-22T00:26:07.297Z,101299.19
2023-01-22T00:28:34.280Z,101294.16
2023-01-22T00:31:03.061Z,101304.31
2023-01-22T00:33:30.251Z,101310.13
2023-01-22T00:36:03.152Z,101316.91
2023-01-22T00:38:30.250Z,101270.78
2023-01-22T00:41:01.568Z,101321.19
2023-01-22T00:43:29.317Z,101324.97
2023-01-22T00:45:56.306Z,101308.44
2023-01-22T00:48:23.233Z,101319.25
2023-01-22T00:50:50.242Z,101307.34
2023-01-22T00:53:17.477Z,101334.34
2023-01-22T00:55:56.076Z,101299.53
2023-01-22T00:58:23.380Z,101293.75
2023-01-22T01:00:51.011Z,101321.41
2023-01-22T01:03:19.353Z,101305.44
2023-01-22T01:05:46.207Z,101317.34
2023-01-22T01:08:13.176Z,101316.00
2023-01-22T01:10:40.299Z,101336.88
2023-01-22T01:13:07.243Z,101330.00
2023-01-22T01:15:34.324Z,101324.28
2023-01-22T01:18:01.826Z,101310.88
2023-01-22T01:20:28.724Z,101306.78
2023-01-22T01:22:55.657Z,101317.28
2023-01-22T01:25:22.837Z,101308.91
2023-01-22T01:27:49.803Z,101308.88
2023-01-22T01:30:17.636Z,101300.31
2023-01-22T01:32:44.741Z,101303.78
2023-01-22T01:35:11.590Z,101302.91
2023-01-22T01:37:39.523Z,101292.53
2023-01-22T01:40:07.621Z,101286.41
2023-01-22T01:42:39.258Z,101308.25
2023-01-22T01:45:27.008Z,101294.19
2023-01-22T01:48:01.635Z,101297.44
2023-01-22T01:50:29.455Z,101303.69
2023-01-22T01:52:59.682Z,101316.19
2023-01-22T01:55:31.480Z,101307.44
2023-01-22T01:58:05.018Z,101314.03
2023-01-22T02:00:35.432Z,101298.03
2023-01-22T02:03:03.040Z,101302.97
2023-01-22T02:05:37.581Z,101301.03
2023-01-22T02:08:06.546Z,101313.38
2023-01-22T02:10:33.442Z,101320.59
2023-01-22T02:13:05.846Z,101298.38
2023-01-22T02:15:33.234Z,101332.91
2023-01-22T02:18:00.049Z,101327.22
2023-01-22T02:20:27.064Z,101306.03
2023-01-22T02:22:53.951Z,101314.50
2023-01-22T02:25:21.447Z,101329.22
2023-01-22T02:27:48.386Z,101320.13
2023-01-22T02:30:16.698Z,101304.28
2023-01-22T02:32:43.696Z,101312.63
2023-01-22T02:35:10.726Z,101319.53
2023-01-22T02:37:37.674Z,101313.88
2023-01-22T02:40:06.298Z,101317.03
2023-01-22T02:42:33.163Z,101304.97
2023-01-22T02:45:00.228Z,101323.53
2023-01-22T02:47:27.355Z,101307.28
2023-01-22T02:49:54.445Z,101302.59
2023-01-22T02:52:21.907Z,101327.78
2023-01-22T02:54:48.775Z,101335.03
2023-01-22T02:57:15.720Z,101315.19
2023-01-22T02:59:42.838Z,101347.44
2023-01-22T03:02:11.573Z,101338.53
2023-01-22T03:04:38.672Z,101344.88
2023-01-22T03:07:05.786Z,101335.06
2023-01-22T03:09:32.711Z,101336.66
2023-01-22T03:11:59.708Z,101332.06
2023-01-22T03:14:30.651Z,101352.41
2023-01-22T03:16:58.434Z,101333.63
2023-01-22T03:19:25.915Z,101339.13
2023-01-22T03:21:53.189Z,101333.41
2023-01-22T03:24:20.257Z,101314.56
2023-01-22T03:26:47.447Z,101326.34
2023-01-22T03:29:14.352Z,101337.47
2023-01-22T03:31:41.366Z,101342.13
2023-01-22T03:34:08.302Z,101339.75
2023-01-22T03:36:35.315Z,101335.88
2023-01-22T03:39:05.118Z,101354.06
2023-01-22T03:41:32.022Z,101329.56
2023-01-22T03:44:02.092Z,101356.88
2023-01-22T03:46:33.087Z,101339.34
2023-01-22T03:49:00.238Z,101330.78
2023-01-22T03:51:27.327Z,101325.34
2023-01-22T03:53:54.270Z,101318.53
2023-01-22T03:56:23.729Z,101344.34
2023-01-22T03:58:53.862Z,101345.94
2023-01-22T04:01:25.286Z,101345.28
2023-01-22T04:03:53.689Z,101359.50
2023-01-22T04:06:23.875Z,101336.34
2023-01-22T04:08:52.624Z,101357.13
2023-01-22T04:11:23.432Z,101339.97
2023-01-22T04:13:50.402Z,101380.69
2023-01-22T04:16:20.340Z,101358.13
2023-01-22T04:18:56.044Z,101369.88
2023-01-22T04:21:37.316Z,101356.78
2023-01-22T04:24:06.703Z,101361.19
2023-01-22T04:26:33.826Z,101383.09
2023-01-22T04:29:02.576Z,101381.00
2023-01-22T04:31:29.834Z,101388.47
2023-01-22T04:34:28.829Z,101372.63
2023-01-22T04:37:15.930Z,101392.06
2023-01-22T04:39:42.916Z,101395.94
2023-01-22T04:42:11.386Z,101378.59
2023-01-22T04:44:38.427Z,101393.09
2023-01-22T04:47:07.535Z,101385.41
2023-01-22T04:49:36.141Z,101395.59
2023-01-22T04:52:05.222Z,101413.56
2023-01-22T04:54:32.415Z,101387.59
2023-01-22T04:56:59.265Z,101410.47
2023-01-22T04:59:26.557Z,101400.84
2023-01-22T05:01:53.450Z,101396.22
2023-01-22T05:04:21.657Z,101421.28
2023-01-22T05:06:48.622Z,101397.50
2023-01-22T05:09:17.313Z,101401.25
2023-01-22T05:11:57.599Z,101411.19
2023-01-22T05:14:25.916Z,101410.13
2023-01-22T05:16:52.805Z,101417.44
2023-01-22T05:19:20.193Z,101401.00
2023-01-22T05:21:48.065Z,101419.09
2023-01-22T05:24:17.783Z,101411.53
2023-01-22T05:26:45.504Z,101412.59
2023-01-22T05:29:25.601Z,101417.28
2023-01-22T05:32:04.689Z,101432.03
2023-01-22T05:34:40.311Z,101446.00
2023-01-22T05:37:09.782Z,101433.66
2023-01-22T05:39:36.620Z,101438.00
2023-01-22T05:42:06.062Z,101424.66
2023-01-22T05:44:33.858Z,101429.38
2023-01-22T05:47:01.798Z,101413.94
2023-01-22T05:49:47.724Z,101435.25
2023-01-22T05:52:15.928Z,101444.88
2023-01-22T05:54:44.365Z,101432.47
2023-01-22T05:57:11.545Z,101426.59
2023-01-22T05:59:39.829Z,101397.88
2023-01-22T06:02:08.567Z,101428.31
2023-01-22T06:04:40.695Z,101412.88
2023-01-22T06:07:18.281Z,101425.50
2023-01-22T06:09:45.848Z,101447.88
2023-01-22T06:12:12.766Z,101441.94
2023-01-22T06:14:39.886Z,101437.69
2023-01-22T06:17:07.487Z,101430.28
2023-01-22T06:19:37.295Z,101424.75
2023-01-22T06:22:05.061Z,101427.38
2023-01-22T06:24:39.817Z,101449.25
2023-01-22T06:27:08.726Z,101433.44
2023-01-22T06:29:41.324Z,101430.38
2023-01-22T06:32:08.654Z,101427.06
2023-01-22T06:34:35.744Z,101435.63
2023-01-22T06:37:05.407Z,101460.91
2023-01-22T06:39:37.084Z,101440.94
2023-01-22T06:42:10.788Z,101445.88
2023-01-22T06:44:38.037Z,101455.16
2023-01-22T06:47:04.967Z,101472.97
2023-01-22T06:49:32.102Z,101466.91
2023-01-22T06:51:58.983Z,101444.50
2023-01-22T06:54:25.927Z,101451.63
2023-01-22T06:56:53.385Z,101472.03
2023-01-22T06:59:23.056Z,101469.50
2023-01-22T07:01:50.009Z,101447.94
2023-01-22T07:04:16.912Z,101486.44
2023-01-22T07:06:43.818Z,101462.22
2023-01-22T07:09:10.664Z,101479.63
2023-01-22T07:11:37.511Z,101487.88
2023-01-22T07:14:04.384Z,101464.28
2023-01-22T07:16:31.278Z,101503.00
2023-01-22T07:18:58.229Z,101472.66
2023-01-22T07:21:25.061Z,101481.25
2023-01-22T07:23:51.926Z,101475.22
2023-01-22T07:26:18.903Z,101488.59
2023-01-22T07:28:45.906Z,101497.34
2023-01-22T07:31:13.915Z,101500.09
2023-01-22T07:33:41.621Z,101465.41
2023-01-22T07:36:08.504Z,101481.00
2023-01-22T07:38:35.387Z,101491.72
2023-01-22T07:41:14.136Z,101485.09
2023-01-22T07:43:51.783Z,101483.31
2023-01-22T07:46:19.231Z,101503.56
2023-01-22T07:48:46.313Z,101492.38
2023-01-22T07:51:13.255Z,101483.47
2023-01-22T07:53:40.212Z,101486.72
2023-01-22T07:56:07.469Z,101497.81
2023-01-22T07:58:35.185Z,101477.22
2023-01-22T08:01:06.745Z,101492.41
2023-01-22T08:03:34.269Z,101478.03
2023-01-22T08:06:01.192Z,101475.53
2023-01-22T08:08:28.118Z,101479.19
2023-01-22T08:10:59.078Z,101498.81
2023-01-22T08:13:26.294Z,101465.16
2023-01-22T08:15:53.177Z,101480.84
2023-01-22T08:18:22.156Z,101492.38
2023-01-22T08:20:49.848Z,101477.34
2023-01-22T08:23:16.941Z,101469.97
2023-01-22T08:25:43.852Z,101473.59
2023-01-22T08:28:10.776Z,101490.19
2023-01-22T08:30:45.325Z,101487.56
2023-01-22T08:33:12.912Z,101471.31
2023-01-22T08:35:39.943Z,101472.66
2023-01-22T08:38:07.214Z,101479.81
2023-01-22T08:40:34.862Z,101480.50
2023-01-22T08:43:03.166Z,101470.91
2023-01-22T08:45:30.045Z,101472.22
2023-01-22T08:47:58.488Z,101479.06
2023-01-22T08:50:26.474Z,101467.75
2023-01-22T08:52:56.600Z,101457.88
2023-01-22T08:55:24.031Z,101466.09
2023-01-22T08:57:55.885Z,101476.78
2023-01-22T09:00:24.039Z,101471.88
2023-01-22T09:02:50.978Z,101474.97
2023-01-22T09:05:17.985Z,101462.56
2023-01-22T09:07:45.036Z,101465.19
2023-01-22T09:10:12.134Z,101489.53
2023-01-22T09:12:44.860Z,101465.69
2023-01-22T09:15:11.840Z,101478.63
2023-01-22T09:17:38.779Z,101478.66
2023-01-22T09:20:06.244Z,101482.28
2023-01-22T09:22:33.229Z,101478.66
2023-01-22T09:25:00.261Z,101491.09
2023-01-22T09:27:27.165Z,101485.13
2023-01-22T09:29:54.109Z,101476.06
2023-01-22T09:32:20.908Z,101471.41
2023-01-22T09:34:47.880Z,101477.91
2023-01-22T09:37:14.796Z,101469.59
2023-01-22T09:39:42.131Z,101491.88
2023-01-22T09:42:16.569Z,101478.13
2023-01-22T09:44:48.317Z,101494.94
2023-01-22T09:47:20.207Z,101473.91
2023-01-22T09:50:06.439Z,101467.84
2023-01-22T09:52:38.081Z,101445.34
2023-01-22T09:55:13.398Z,101446.06
2023-01-22T09:57:49.143Z,101468.13
2023-01-22T10:00:19.307Z,101480.75
2023-01-22T10:03:01.625Z,101476.34
2023-01-22T10:05:46.935Z,101472.34
2023-01-22T10:08:20.455Z,101472.91
2023-01-22T10:10:48.514Z,101462.59
2023-01-22T10:13:27.041Z,101497.41
2023-01-22T10:15:56.003Z,101486.19
2023-01-22T10:19:00.098Z,101478.25
2023-01-22T10:21:34.351Z,101479.38
2023-01-22T10:24:01.397Z,101485.63
2023-01-22T10:26:48.670Z,101479.00
2023-01-22T10:29:21.527Z,101483.91
2023-01-22T10:31:53.771Z,101490.50
2023-01-22T10:34:27.298Z,101489.50
2023-01-22T10:36:54.724Z,101497.94
2023-01-22T10:39:23.180Z,101477.44
2023-01-22T10:42:01.575Z,101485.34
2023-01-22T10:44:28.871Z,101479.88
2023-01-22T10:47:08.620Z,101477.31
2023-01-22T10:49:35.699Z,101484.00
2023-01-22T10:52:15.693Z,101499.94
2023-01-22T10:54:42.795Z,101488.91
2023-01-22T10:57:25.409Z,101493.78
2023-01-22T11:00:23.132Z,101508.25
2023-01-22T11:02:51.175Z,101493.47
2023-01-22T11:05:27.589Z,101470.78
2023-01-22T11:08:05.487Z,101482.22
2023-01-22T11:10:50.751Z,101484.06
2023-01-22T11:13:44.555Z,101493.25
2023-01-22T11:16:18.167Z,101506.44
2023-01-22T11:19:13.270Z,101492.94
2023-01-22T11:21:49.840Z,101479.47
2023-01-22T11:24:22.434Z,101497.75
2023-01-22T11:27:03.102Z,101453.09
2023-01-22T11:29:32.848Z,101494.84
2023-01-22T11:32:18.139Z,101474.75
2023-01-22T11:34:48.052Z,101493.97
2023-01-22T11:37:24.986Z,101498.00
2023-01-22T11:39:52.023Z,101481.09
2023-01-22T11:42:28.065Z,101494.19
2023-01-22T11:45:30.701Z,101505.09
2023-01-22T11:48:29.824Z,101494.28
2023-01-22T11:51:09.376Z,101490.16
2023-01-22T11:53:48.089Z,101494.47
2023-01-22T11:56:49.386Z,101494.69
2023-01-22T11:59:53.800Z,101516.13
2023-01-22T12:02:45.634Z,101501.69
2023-01-22T12:05:37.438Z,101492.16
2023-01-22T12:08:22.557Z,101496.03
2023-01-22T12:11:02.293Z,101494.09
2023-01-22T12:13:43.335Z,101481.41
2023-01-22T12:16:27.265Z,101493.94
2023-01-22T12:19:20.698Z,101501.38
2023-01-22T12:22:01.040Z,101486.16
2023-01-22T12:24:41.467Z,101496.47
2023-01-22T12:27:51.250Z,101504.47
2023-01-22T12:30:25.910Z,101511.63
2023-01-22T12:33:00.504Z,101484.72
2023-01-22T12:35:31.614Z,101505.84
2023-01-22T12:38:12.273Z,101513.41
2023-01-22T12:40:42.420Z,101505.69
2023-01-22T12:43:09.333Z,101507.19
2023-01-22T12:45:57.953Z,101507.38
2023-01-22T12:48:51.026Z,101515.72
2023-01-22T12:51:38.420Z,101495.28
2023-01-22T12:54:29.253Z,101502.59
2023-01-22T12:57:09.790Z,101506.50
2023-01-22T12:59:36.755Z,101510.72
2023-01-22T13:02:27.152Z,101491.03
2023-01-22T13:04:55.837Z,101502.97
2023-01-22T13:07:24.180Z,101497.03
2023-01-22T13:10:22.006Z,101510.00
2023-01-22T13:12:52.143Z,101517.00
2023-01-22T13:15:35.901Z,101511.81
2023-01-22T13:18:08.186Z,101531.22
2023-01-22T13:20:46.194Z,101523.47
2023-01-22T13:23:15.157Z,101496.03
2023-01-22T13:25:42.326Z,101508.44
2023-01-22T13:28:19.462Z,101508.44
2023-01-22T13:30:56.794Z,101502.47
2023-01-22T13:33:24.312Z,101532.44
2023-01-22T13:35:51.471Z,101497.75
2023-01-22T13:38:27.002Z,101495.69
2023-01-22T13:41:20.636Z,101494.06
2023-01-22T13:43:47.922Z,101514.75
2023-01-22T13:46:17.296Z,101504.47
2023-01-22T13:48:44.515Z,101509.41
2023-01-22T13:51:20.796Z,101512.38
2023-01-22T13:53:54.543Z,101522.97
2023-01-22T13:56:24.586Z,101528.41
2023-01-22T13:59:11.950Z,101502.75
2023-01-22T14:01:38.888Z,101506.72
2023-01-22T14:04:24.454Z,101517.78
2023-01-22T14:06:51.541Z,101521.13
2023-01-22T14:09:30.687Z,101508.31
2023-01-22T14:11:59.213Z,101520.28
2023-01-22T14:14:26.768Z,101527.84
2023-01-22T14:16:53.743Z,101504.56
2023-01-22T14:19:20.620Z,101511.50
2023-01-22T14:21:47.700Z,101529.34
2023-01-22T14:24:14.641Z,101518.69
2023-01-22T14:26:41.656Z,101529.44
2023-01-22T14:29:08.580Z,101507.84
2023-01-22T14:31:35.658Z,101509.25
2023-01-22T14:34:02.613Z,101518.09
2023-01-22T14:36:29.696Z,101511.75
2023-01-22T14:38:56.705Z,101512.41
2023-01-22T14:41:23.741Z,101506.13
2023-01-22T14:43:50.624Z,101506.47
2023-01-22T14:46:17.662Z,101492.63
2023-01-22T14:48:44.547Z,101510.69
2023-01-22T14:51:12.489Z,101514.56
2023-01-22T14:53:40.002Z,101516.84
2023-01-22T14:56:07.313Z,101500.47
2023-01-22T14:58:34.201Z,101522.28
2023-01-22T15:01:01.255Z,101526.78
2023-01-22T15:03:31.261Z,101527.38
2023-01-22T15:05:58.200Z,101528.84
2023-01-22T15:08:25.144Z,101523.72
2023-01-22T15:10:52.103Z,101530.91
2023-01-22T15:13:19.097Z,101536.34
2023-01-22T15:15:46.013Z,101535.94
2023-01-22T15:18:12.986Z,101528.63
2023-01-22T15:20:40.310Z,101532.41
2023-01-22T15:23:07.297Z,101529.50
2023-01-22T15:25:34.787Z,101521.69
2023-01-22T15:28:01.665Z,101538.75
2023-01-22T15:30:29.524Z,101534.00
2023-01-22T15:32:56.394Z,101534.38
2023-01-22T15:35:23.273Z,101529.94
2023-01-22T15:37:50.093Z,101531.53
2023-01-22T15:40:17.343Z,101536.41
2023-01-22T15:42:44.457Z,101536.97
2023-01-22T15:45:12.192Z,101544.50
2023-01-22T15:47:39.196Z,101538.47
2023-01-22T15:50:06.755Z,101539.97
2023-01-22T15:52:33.640Z,101555.94
2023-01-22T15:55:00.589Z,101548.69
2023-01-22T15:57:28.132Z,101549.25
2023-01-22T15:59:55.022Z,101560.91
2023-01-22T16:02:21.895Z,101547.94
2023-01-22T16:04:48.925Z,101544.09
2023-01-22T16:07:15.783Z,101545.97
2023-01-22T16:09:44.293Z,101534.06
2023-01-22T16:12:11.349Z,101533.44
2023-01-22T16:14:39.472Z,101562.13
2023-01-22T16:17:06.488Z,101561.94
2023-01-22T16:19:33.388Z,101555.59
2023-01-22T16:22:00.286Z,101537.09
2023-01-22T16:24:27.308Z,101562.72
2023-01-22T16:26:54.189Z,101554.03
2023-01-22T16:29:21.429Z,101551.19
2023-01-22T16:31:48.885Z,101550.78
2023-01-22T16:34:17.896Z,101551.63
2023-01-22T16:36:44.886Z,101559.75
2023-01-22T16:39:20.876Z,101565.16
2023-01-22T16:41:49.894Z,101565.22
2023-01-22T16:44:19.545Z,101543.09
2023-01-22T16:46:50.865Z,101539.06
2023-01-22T16:49:32.599Z,101558.28
2023-01-22T16:52:16.679Z,101567.69
2023-01-22T16:54:48.999Z,101575.88
2023-01-22T16:57:16.035Z,101570.44
2023-01-22T16:59:43.506Z,101563.38
2023-01-22T17:02:15.737Z,101569.03
2023-01-22T17:04:42.893Z,101572.53
2023-01-22T17:07:20.463Z,101560.56
2023-01-22T17:09:54.792Z,101560.25
2023-01-22T17:12:21.863Z,101570.22
2023-01-22T17:14:49.025Z,101568.97
2023-01-22T17:17:15.920Z,101566.19
2023-01-22T17:19:43.035Z,101578.75
2023-01-22T17:22:10.063Z,101538.19
2023-01-22T17:24:37.205Z,101565.66
2023-01-22T17:27:04.495Z,101567.59
2023-01-22T17:29:32.027Z,101552.44
2023-01-22T17:31:59.337Z,101562.06
2023-01-22T17:34:26.424Z,101554.38
2023-01-22T17:36:53.437Z,101554.47
2023-01-22T17:39:21.072Z,101567.22
2023-01-22T17:41:47.965Z,101568.16
2023-01-22T17:44:15.065Z,101567.38
2023-01-22T17:46:43.536Z,101558.63
2023-01-22T17:49:10.675Z,101559.44
2023-01-22T17:51:37.642Z,101559.03
2023-01-22T17:54:05.572Z,101607.13
2023-01-22T17:56:35.219Z,101585.75
2023-01-22T17:59:05.960Z,101563.06
2023-01-22T18:01:34.539Z,101561.94
2023-01-22T18:04:04.467Z,101588.81
2023-01-22T18:06:34.241Z,101544.28
2023-01-22T18:09:01.151Z,101574.09
2023-01-22T18:11:29.485Z,101580.16
2023-01-22T18:14:00.159Z,101584.53
2023-01-22T18:16:34.833Z,101582.47
2023-01-22T18:19:02.807Z,101576.03
2023-01-22T18:21:30.438Z,101590.38
2023-01-22T18:24:00.852Z,101594.56
2023-01-22T18:26:28.320Z,101565.94
2023-01-22T18:28:57.960Z,101588.97
2023-01-22T18:31:27.979Z,101589.84
2023-01-22T18:33:58.924Z,101588.56
2023-01-22T18:36:28.281Z,101586.00
2023-01-22T18:39:04.799Z,101568.84
2023-01-22T18:41:32.224Z,101584.31
2023-01-22T18:44:01.418Z,101592.91
2023-01-22T18:46:33.150Z,101580.81
2023-01-22T18:49:04.287Z,101587.91
2023-01-22T18:51:34.326Z,101586.66
2023-01-22T18:54:05.560Z,101585.25
2023-01-22T18:56:33.160Z,101595.41
2023-01-22T18:59:01.279Z,101595.81
2023-01-22T19:01:32.273Z,101576.31
2023-01-22T19:04:02.985Z,101596.31
2023-01-22T19:06:36.824Z,101596.97
2023-01-22T19:09:06.516Z,101600.94
2023-01-22T19:11:38.757Z,101611.75
2023-01-22T19:14:05.985Z,101617.63
2023-01-22T19:16:33.368Z,101613.03
2023-01-22T19:19:06.839Z,101602.59
2023-01-22T19:21:33.869Z,101633.69
2023-01-22T19:24:03.723Z,101638.50
2023-01-22T19:26:34.015Z,101614.47
2023-01-22T19:29:04.012Z,101619.72
2023-01-22T19:31:34.577Z,101604.81
2023-01-22T19:34:02.668Z,101625.34
2023-01-22T19:36:32.006Z,101615.00
2023-01-22T19:39:02.442Z,101623.00
2023-01-22T19:41:29.475Z,101616.19
2023-01-22T19:44:01.070Z,101613.97
2023-01-22T19:46:29.058Z,101632.63
2023-01-22T19:48:56.856Z,101634.56
2023-01-22T19:51:24.178Z,101634.66
2023-01-22T19:53:51.191Z,101626.91
2023-01-22T20:04:31.364Z,101633.81
2023-01-22T20:07:03.879Z,101630.06
2023-01-22T20:09:31.972Z,101640.28
2023-01-22T20:11:59.914Z,101599.81
2023-01-22T20:14:31.654Z,101635.84
2023-01-22T20:17:00.598Z,101628.84
2023-01-22T20:19:28.785Z,101633.94
2023-01-22T20:21:55.902Z,101639.41
2023-01-22T20:24:22.851Z,101650.56
2023-01-22T20:26:52.965Z,101655.47
2023-01-22T20:29:19.926Z,101659.81
2023-01-22T20:31:49.877Z,101650.25
2023-01-22T20:34:16.941Z,101642.56
2023-01-22T20:36:43.928Z,101649.09
2023-01-22T20:39:11.046Z,101640.25
2023-01-22T20:41:37.927Z,101655.84
2023-01-22T20:44:05.594Z,101604.97
2023-01-22T20:46:32.546Z,101611.97
2023-01-22T20:49:02.270Z,101610.72
2023-01-22T20:51:29.824Z,101640.34
2023-01-22T20:53:58.071Z,101638.63
2023-01-22T20:56:28.553Z,101637.47
2023-01-22T20:58:57.691Z,101642.03
2023-01-22T21:01:25.721Z,101660.97
2023-01-22T21:03:53.014Z,101650.31
2023-01-22T21:06:21.022Z,101644.47
2023-01-22T21:08:50.619Z,101658.66
2023-01-22T21:11:19.098Z,101644.84
2023-01-22T21:13:47.559Z,101650.84
2023-01-22T21:16:20.453Z,101650.69
2023-01-22T21:18:47.443Z,101632.13
2023-01-22T21:21:17.922Z,101652.94
2023-01-22T21:23:47.456Z,101664.16
2023-01-22T21:26:15.638Z,101656.28
2023-01-22T21:28:42.674Z,101640.22
2023-01-22T21:31:15.291Z,101669.13
2023-01-22T21:33:42.905Z,101651.31
2023-01-22T21:36:11.039Z,101634.50
2023-01-22T21:38:39.739Z,101659.34
2023-01-22T21:41:08.271Z,101661.31
2023-01-22T21:43:35.716Z,101657.47
2023-01-22T21:46:06.076Z,101663.63
2023-01-22T21:48:33.049Z,101660.66
2023-01-22T21:50:59.886Z,101658.19
2023-01-22T21:53:26.871Z,101686.47
2023-01-22T21:55:54.000Z,101686.09
2023-01-22T21:58:21.226Z,101690.69
2023-01-22T22:00:48.241Z,101686.50
2023-01-22T22:03:15.297Z,101710.78
2023-01-22T22:05:42.750Z,101707.66
2023-01-22T22:08:09.806Z,101714.44
2023-01-22T22:10:36.740Z,101714.38
2023-01-22T22:13:04.251Z,101691.94
2023-01-22T22:15:32.847Z,101712.94
2023-01-22T22:17:59.801Z,101721.63
2023-01-22T22:20:26.720Z,101701.84
2023-01-22T22:22:53.657Z,101697.34
2023-01-22T22:25:20.538Z,101702.78
2023-01-22T22:27:47.468Z,101706.94
2023-01-22T22:30:14.446Z,101698.13
2023-01-22T22:32:41.371Z,101677.41
2023-01-22T22:35:08.588Z,101715.16
2023-01-22T22:37:35.653Z,101689.66
2023-01-22T22:40:03.162Z,101707.41
2023-01-22T22:42:30.446Z,101695.31
2023-01-22T22:44:57.372Z,101716.94
2023-01-22T22:47:24.255Z,101707.13
2023-01-22T22:49:51.078Z,101710.53
2023-01-22T22:52:18.049Z,101703.06
2023-01-22T22:54:44.961Z,101723.81
2023-01-22T22:57:11.842Z,101738.75
2023-01-22T22:59:38.844Z,101701.00
2023-01-22T23:02:05.796Z,101736.03
2023-01-22T23:04:33.522Z,101715.38
2023-01-22T23:07:00.513Z,101729.06
2023-01-22T23:09:28.464Z,101741.88
2023-01-22T23:11:55.460Z,101737.50
2023-01-22T23:14:23.335Z,101740.16
2023-01-22T23:16:50.328Z,101746.88
2023-01-22T23:19:22.966Z,101715.84
2023-01-22T23:21:59.544Z,101735.72
2023-01-22T23:24:26.892Z,101737.28
2023-01-22T23:26:54.171Z,101733.28
2023-01-22T23:29:23.300Z,101727.50
2023-01-22T23:31:50.992Z,101749.06
2023-01-22T23:34:21.312Z,101735.22
2023-01-22T23:36:49.168Z,101749.53
2023-01-22T23:39:19.218Z,101746.50
2023-01-22T23:41:46.400Z,101743.59
2023-01-22T23:44:13.490Z,101727.59
2023-01-22T23:46:41.426Z,101744.78
2023-01-22T23:49:08.378Z,101760.53
2023-01-22T23:51:35.229Z,101691.31
2023-01-22T23:54:02.071Z,101753.25
2023-01-22T23:56:29.260Z,101724.78
2023-01-22T23:58:57.164Z,101752.88
